Time;durP1;ratioP1;P1;durP2;ratioP2;P2;SDS_P1;SDS_P2;PMS_P1;PMS_P2;Temp;Humidity;BMP_temperature;BMP_pressure;BME280_temperature;BME280_humidity;BME280_pressure;Samples;Min_cycle;Max_cycle;Signal;HPM_P1;HPM_P2
2023/05/31 00:01:39;;;;;;;13.20;7.50;;;;;;;23.08;42.36;100574.67;105647;1300;68221;-88
2023/05/31 00:04:04;;;;;;;13.10;7.40;;;;;;;23.07;42.30;100572.32;105449;1300;67137;-88
2023/05/31 00:09:08;;;;;;;11.30;7.20;;;;;;;23.07;42.28;100574.83;105467;1300;67106;-88
2023/05/31 00:11:33;;;;;;;14.00;7.00;;;;;;;23.06;42.19;100574.63;105349;1299;68131;-87
2023/05/31 00:14:00;;;;;;;9.10;7.00;;;;;;;23.06;42.34;100577.19;105328;1299;67227;-88
2023/05/31 00:16:26;;;;;;;12.10;7.40;;;;;;;23.06;42.29;100580.94;105288;1298;68501;-89
2023/05/31 00:18:51;;;;;;;11.60;7.10;;;;;;;23.06;42.35;100582.73;105271;1301;67808;-88
2023/05/31 00:21:17;;;;;;;8.60;6.80;;;;;;;23.06;42.42;100585.77;105586;1299;68006;-87
2023/05/31 00:23:43;;;;;;;9.70;7.30;;;;;;;23.06;42.36;100580.63;105674;1299;67980;-88
2023/05/31 00:26:08;;;;;;;12.50;7.30;;;;;;;23.05;42.26;100584.27;105687;1300;67046;-88
2023/05/31 00:28:34;;;;;;;9.10;6.70;;;;;;;23.06;42.36;100582.33;105727;1299;67782;-88
2023/05/31 00:31:00;;;;;;;10.00;7.20;;;;;;;23.05;42.42;100582.13;105719;1299;68276;-88
2023/05/31 00:33:34;;;;;;;10.50;7.00;;;;;;;23.05;42.39;100582.84;105729;1298;67239;-92
2023/05/31 00:36:00;;;;;;;13.10;7.70;;;;;;;23.03;42.43;100583.46;105401;1299;74538;-88
2023/05/31 00:38:27;;;;;;;8.90;7.20;;;;;;;23.04;42.39;100586.35;105376;1299;67808;-88
2023/05/31 00:40:55;;;;;;;16.90;11.70;;;;;;;23.04;42.41;100587.17;105579;1299;67703;-88
2023/05/31 00:43:21;;;;;;;19.30;14.30;;;;;;;23.03;42.45;100588.66;105575;1299;67936;-88
2023/05/31 00:45:47;;;;;;;16.30;12.80;;;;;;;23.03;42.51;100586.85;105694;1299;67973;-88
2023/05/31 00:48:13;;;;;;;20.00;13.30;;;;;;;23.03;42.50;100588.31;105761;1300;68250;-87
2023/05/31 00:50:38;;;;;;;17.60;13.00;;;;;;;23.03;42.55;100584.35;105752;1299;68291;-87
2023/05/31 00:53:04;;;;;;;18.10;11.70;;;;;;;23.03;42.45;100586.97;105523;1298;68041;-87
2023/05/31 00:55:31;;;;;;;16.00;10.60;;;;;;;23.03;42.55;100588.05;105537;1300;67957;-87
2023/05/31 00:58:00;;;;;;;16.20;10.90;;;;;;;23.03;42.65;100590.87;105438;1299;84162;-87
2023/05/31 01:00:28;;;;;;;14.70;11.00;;;;;;;23.02;42.57;100587.27;105403;1298;68674;-92
2023/05/31 01:03:02;;;;;;;11.90;9.80;;;;;;;23.02;42.58;100591.33;105436;1299;68112;-89
2023/05/31 01:05:31;;;;;;;13.90;10.00;;;;;;;23.02;42.56;100593.95;105571;1299;67774;-89
2023/05/31 01:08:00;;;;;;;12.20;9.30;;;;;;;23.01;42.63;100598.98;105322;1300;67874;-89
2023/05/31 01:10:25;;;;;;;13.80;9.60;;;;;;;23.01;42.66;100597.14;105280;1300;75517;-88
2023/05/31 01:13:19;;;;;;;12.70;9.50;;;;;;;23.01;42.62;100596.98;105431;1299;68074;-89
2023/05/31 01:15:56;;;;;;;12.00;9.30;;;;;;;23.00;42.71;100598.99;105409;1299;67661;-88
2023/05/31 01:18:54;;;;;;;12.70;9.10;;;;;;;22.99;42.75;100602.34;105376;1299;67502;-93
2023/05/31 01:21:33;;;;;;;13.20;9.10;;;;;;;22.98;42.76;100604.76;105272;1299;67889;-94
2023/05/31 01:24:23;;;;;;;14.10;8.90;;;;;;;22.98;42.75;100604.70;105372;1299;74876;-88
2023/05/31 01:26:53;;;;;;;11.80;8.50;;;;;;;22.98;42.76;100603.27;105316;1300;68349;-88
2023/05/31 01:29:21;;;;;;;12.90;9.00;;;;;;;22.97;42.78;100608.04;105263;1300;67766;-89
2023/05/31 01:31:47;;;;;;;11.30;7.90;;;;;;;22.97;42.77;100609.23;105296;1300;67846;-89
2023/05/31 01:34:15;;;;;;;13.30;8.20;;;;;;;22.96;42.78;100610.61;105370;1300;67837;-89
2023/05/31 01:36:41;;;;;;;10.60;7.80;;;;;;;22.96;42.91;100612.45;105327;1300;68003;-89
2023/05/31 01:41:54;;;;;;;11.90;7.60;;;;;;;22.96;42.92;100613.39;105291;1299;68041;-88
2023/05/31 01:44:19;;;;;;;12.80;8.00;;;;;;;22.96;42.90;100616.36;105269;1298;67174;-88
2023/05/31 01:46:45;;;;;;;12.10;8.40;;;;;;;22.96;42.94;100615.48;105279;1299;67903;-88
2023/05/31 01:49:11;;;;;;;12.40;7.40;;;;;;;22.96;42.92;100615.64;105206;1299;67176;-88
2023/05/31 01:51:36;;;;;;;11.50;7.50;;;;;;;22.96;42.97;100616.47;105271;1300;69085;-88
2023/05/31 01:56:46;;;;;;;10.70;7.60;;;;;;;22.95;43.02;100614.52;105429;1296;67681;-88
2023/05/31 01:59:11;;;;;;;11.50;7.70;;;;;;;22.95;43.13;100612.67;105282;1297;68673;-88
2023/05/31 02:01:37;;;;;;;11.60;7.60;;;;;;;22.95;43.03;100612.11;105379;1297;68205;-88
2023/05/31 02:04:03;;;;;;;10.60;8.00;;;;;;;22.94;42.97;100612.05;105258;1297;68309;-88
2023/05/31 02:06:28;;;;;;;13.70;9.80;;;;;;;22.94;43.06;100614.58;105349;1297;68235;-89
2023/05/31 02:08:54;;;;;;;15.30;8.20;;;;;;;22.94;43.05;100620.59;105314;1297;67966;-88
2023/05/31 02:11:20;;;;;;;9.80;6.90;;;;;;;22.93;43.11;100620.90;105367;1297;67901;-88
2023/05/31 02:13:46;;;;;;;10.80;7.60;;;;;;;22.92;42.99;100623.11;105269;1297;67933;-88
2023/05/31 02:16:11;;;;;;;12.10;6.70;;;;;;;22.91;42.90;100622.65;105406;1297;67926;-88
2023/05/31 02:18:37;;;;;;;13.90;7.60;;;;;;;22.90;42.90;100621.94;105281;1297;67859;-89
2023/05/31 02:21:11;;;;;;;14.30;6.80;;;;;;;22.88;42.86;100618.46;105408;1297;68993;-94
2023/05/31 02:23:37;;;;;;;9.10;6.30;;;;;;;22.86;42.87;100618.52;105392;1297;67991;-88
2023/05/31 02:26:04;;;;;;;12.80;6.40;;;;;;;22.84;42.79;100621.30;105291;1297;68782;-88
2023/05/31 02:28:29;;;;;;;10.30;6.40;;;;;;;22.81;42.89;100622.95;105221;1297;67779;-88
2023/05/31 02:30:58;;;;;;;11.10;6.60;;;;;;;22.80;42.87;100619.48;105230;1302;68481;-88
2023/05/31 02:33:24;;;;;;;12.70;6.20;;;;;;;22.77;42.88;100622.98;105250;1297;84941;-88
2023/05/31 02:35:50;;;;;;;9.60;6.40;;;;;;;22.75;42.94;100622.12;105295;1297;69131;-88
2023/05/31 02:38:16;;;;;;;10.30;6.00;;;;;;;22.73;42.98;100619.88;105335;1297;67501;-87
2023/05/31 02:40:41;;;;;;;12.00;6.10;;;;;;;22.71;43.10;100620.14;105287;1297;68049;-88
2023/05/31 02:43:07;;;;;;;8.30;6.10;;;;;;;22.70;42.99;100618.61;105289;1297;67780;-88
2023/05/31 02:45:32;;;;;;;9.10;5.90;;;;;;;22.69;43.05;100617.58;105361;1297;67751;-88
2023/05/31 02:48:07;;;;;;;14.90;6.00;;;;;;;22.67;42.98;100621.13;105235;1302;68531;-93
2023/05/31 02:50:33;;;;;;;13.50;7.20;;;;;;;22.65;43.06;100629.08;105458;1298;67898;-88
2023/05/31 02:53:00;;;;;;;7.50;6.30;;;;;;;22.65;43.11;100636.58;105315;1297;67854;-88
2023/05/31 02:55:29;;;;;;;10.10;5.20;;;;;;;22.64;43.19;100639.60;105499;1297;67923;-88
2023/05/31 02:57:54;;;;;;;6.40;4.30;;;;;;;22.64;43.31;100642.58;105304;1303;67823;-87
2023/05/31 03:00:20;;;;;;;11.40;4.40;;;;;;;22.65;43.30;100644.52;105294;1297;68214;-88
2023/05/31 03:02:46;;;;;;;12.10;4.80;;;;;;;22.66;43.38;100648.88;105333;1297;67530;-88
2023/05/31 03:05:11;;;;;;;11.50;5.00;;;;;;;22.67;43.36;100649.40;105376;1300;68538;-87
2023/05/31 03:07:37;;;;;;;15.00;6.00;;;;;;;22.67;43.36;100650.82;105327;1297;69057;-88
2023/05/31 03:10:06;;;;;;;16.70;5.70;;;;;;;22.67;43.41;100655.23;105316;1297;68995;-87
2023/05/31 03:12:32;;;;;;;10.60;6.10;;;;;;;22.67;43.30;100658.00;105254;1297;67895;-88
2023/05/31 03:15:01;;;;;;;15.70;6.30;;;;;;;22.66;43.23;100657.50;105258;1297;67951;-93
2023/05/31 03:17:27;;;;;;;12.70;6.10;;;;;;;22.64;43.24;100659.14;105552;1297;75413;-87
2023/05/31 03:19:52;;;;;;;11.60;6.50;;;;;;;22.63;43.16;100656.98;105233;1297;68358;-88
2023/05/31 03:22:18;;;;;;;12.20;6.20;;;;;;;22.63;43.17;100661.60;105206;1297;67568;-87
2023/05/31 03:24:44;;;;;;;12.60;6.00;;;;;;;22.61;43.24;100663.98;105273;1297;67932;-88
2023/05/31 03:27:10;;;;;;;9.00;6.50;;;;;;;22.61;43.19;100664.70;105389;1297;67265;-87
2023/05/31 03:29:37;;;;;;;10.50;6.20;;;;;;;22.61;43.15;100667.58;105271;1297;68041;-87
2023/05/31 03:32:03;;;;;;;15.80;6.30;;;;;;;22.60;43.06;100664.76;105335;1297;67142;-87
2023/05/31 03:34:29;;;;;;;13.90;6.80;;;;;;;22.59;43.18;100669.02;105660;1297;67804;-87
2023/05/31 03:36:54;;;;;;;11.20;6.50;;;;;;;22.57;43.10;100671.08;105444;1300;67972;-87
2023/05/31 03:39:20;;;;;;;12.70;6.60;;;;;;;22.55;43.00;100677.70;105355;1297;67963;-87
2023/05/31 03:41:55;;;;;;;8.70;6.30;;;;;;;22.50;43.01;100678.02;105342;1301;67871;-92
2023/05/31 03:44:20;;;;;;;35.20;8.00;;;;;;;22.46;43.11;100678.29;105599;1300;69171;-87
2023/05/31 03:46:47;;;;;;;27.80;7.50;;;;;;;22.42;43.23;100681.36;105334;1297;67196;-87
2023/05/31 03:49:12;;;;;;;25.60;7.40;;;;;;;22.38;43.28;100681.88;105273;1297;68009;-87
2023/05/31 03:51:38;;;;;;;18.50;6.90;;;;;;;22.36;43.36;100679.63;105217;1297;68538;-88
2023/05/31 03:54:03;;;;;;;20.10;7.00;;;;;;;22.33;43.50;100678.24;105444;1297;68004;-88
2023/05/31 03:56:29;;;;;;;14.60;6.80;;;;;;;22.31;43.56;100678.35;105723;1298;67823;-87
2023/05/31 03:58:55;;;;;;;14.20;6.50;;;;;;;22.30;43.68;100679.22;105597;1297;72484;-87
2023/05/31 04:01:20;;;;;;;19.70;6.40;;;;;;;22.29;43.76;100679.07;105658;1297;68512;-88
2023/05/31 04:03:46;;;;;;;13.10;6.70;;;;;;;22.28;43.90;100682.77;105481;1297;67852;-88
2023/05/31 04:06:44;;;;;;;16.50;7.00;;;;;;;22.26;43.97;100679.89;105676;1297;67745;-89
2023/05/31 04:09:10;;;;;;;15.80;6.80;;;;;;;22.26;44.00;100682.41;105746;1297;67837;-89
2023/05/31 04:14:12;;;;;;;14.60;6.60;;;;;;;22.25;44.22;100689.54;105648;1298;72840;-88
2023/05/31 04:16:38;;;;;;;13.30;7.20;;;;;;;22.24;44.21;100686.11;105641;1299;67755;-89
2023/05/31 04:19:03;;;;;;;11.20;6.70;;;;;;;22.24;44.22;100691.18;105718;1299;69073;-89
2023/05/31 04:21:29;;;;;;;13.00;6.20;;;;;;;22.24;44.24;100692.01;105479;1299;68582;-88
2023/05/31 04:23:55;;;;;;;14.00;6.50;;;;;;;22.23;44.12;100696.98;105369;1303;67110;-89
2023/05/31 04:26:21;;;;;;;10.90;6.70;;;;;;;22.24;44.11;100700.45;105389;1299;68211;-88
2023/05/31 04:28:53;;;;;;;11.20;6.30;;;;;;;22.25;44.16;100703.53;105370;1300;67149;-88
2023/05/31 04:31:19;;;;;;;11.60;6.40;;;;;;;22.27;44.09;100705.58;105396;1299;68012;-88
2023/05/31 04:33:45;;;;;;;9.20;6.30;;;;;;;22.29;44.02;100704.70;105597;1299;67201;-88
2023/05/31 04:36:10;;;;;;;8.90;5.90;;;;;;;22.32;43.99;100709.55;105458;1299;67843;-88
2023/05/31 04:38:41;;;;;;;8.90;6.20;;;;;;;22.33;43.98;100711.05;105499;1298;67204;-93
2023/05/31 04:41:06;;;;;;;12.60;6.10;;;;;;;22.35;43.93;100713.65;105486;1299;67831;-87
2023/05/31 04:43:32;;;;;;;10.60;6.30;;;;;;;22.37;43.88;100718.84;105664;1298;68050;-88
2023/05/31 04:46:00;;;;;;;10.80;6.00;;;;;;;22.39;43.82;100716.07;105619;1298;68947;-88
2023/05/31 04:48:29;;;;;;;11.30;5.90;;;;;;;22.41;43.72;100718.83;105767;1298;67697;-89
2023/05/31 04:50:55;;;;;;;12.60;5.90;;;;;;;22.43;43.73;100719.09;105865;1297;67008;-88
2023/05/31 04:53:22;;;;;;;9.10;5.80;;;;;;;22.44;43.66;100714.23;105315;1300;68342;-88
2023/05/31 04:55:48;;;;;;;11.80;5.30;;;;;;;22.46;43.57;100717.87;105704;1293;67656;-88
2023/05/31 04:58:15;;;;;;;14.90;5.90;;;;;;;22.48;43.37;100720.13;105697;1299;67659;-90
2023/05/31 05:00:41;;;;;;;10.70;5.60;;;;;;;22.49;43.23;100719.45;105467;1299;67237;-87
2023/05/31 05:03:08;;;;;;;14.50;5.60;;;;;;;22.50;43.19;100724.78;105547;1299;68701;-88
2023/05/31 05:05:37;;;;;;;10.80;5.70;;;;;;;22.51;43.11;100723.30;105615;1299;67877;-93
2023/05/31 05:08:04;;;;;;;11.30;5.80;;;;;;;22.53;42.99;100729.34;105373;1299;67895;-87
2023/05/31 05:10:29;;;;;;;9.20;5.50;;;;;;;22.54;42.77;100729.64;105359;1299;68573;-87
2023/05/31 05:12:55;;;;;;;11.60;5.40;;;;;;;22.55;42.66;100731.34;105102;1301;68429;-86
2023/05/31 05:15:21;;;;;;;10.50;6.40;;;;;;;22.56;42.41;100733.59;105193;1304;69233;-86
2023/05/31 05:17:47;;;;;;;13.00;5.70;;;;;;;22.57;42.38;100732.72;105252;1303;69307;-86
2023/05/31 05:20:12;;;;;;;10.60;5.80;;;;;;;22.59;42.19;100731.08;105027;1299;68359;-86
2023/05/31 05:22:38;;;;;;;13.30;5.80;;;;;;;22.59;42.15;100730.46;105267;1302;74330;-84
2023/05/31 05:25:04;;;;;;;8.20;5.70;;;;;;;22.61;42.00;100736.03;105099;1305;69366;-84
2023/05/31 05:27:30;;;;;;;10.60;5.50;;;;;;;22.62;41.77;100733.88;104927;1301;67790;-88
2023/05/31 05:29:56;;;;;;;10.30;5.40;;;;;;;22.65;41.62;100735.77;104990;1303;68800;-87
2023/05/31 05:32:31;;;;;;;8.60;5.30;;;;;;;22.66;41.49;100738.98;105009;1298;67963;-92
2023/05/31 05:34:56;;;;;;;10.60;5.30;;;;;;;22.67;41.42;100739.10;105477;1299;74858;-90
2023/05/31 05:37:22;;;;;;;8.60;4.60;;;;;;;22.69;41.24;100737.35;105383;1303;68355;-88
2023/05/31 05:39:47;;;;;;;9.00;5.20;;;;;;;22.70;41.05;100739.30;105341;1300;68736;-88
2023/05/31 05:42:13;;;;;;;8.60;4.70;;;;;;;22.70;40.93;100740.98;105689;1299;68495;-92
2023/05/31 05:44:39;;;;;;;13.30;5.00;;;;;;;22.71;40.78;100742.84;105407;1300;67882;-87
2023/05/31 05:47:05;;;;;;;11.90;4.80;;;;;;;22.72;40.62;100743.51;105422;1299;69118;-87
2023/05/31 05:49:32;;;;;;;8.50;4.50;;;;;;;22.72;40.58;100744.41;105373;1299;67742;-88
2023/05/31 05:51:58;;;;;;;9.40;4.80;;;;;;;22.74;40.34;100748.57;105321;1297;68468;-86
2023/05/31 05:54:24;;;;;;;9.30;4.70;;;;;;;22.75;40.18;100751.34;105299;1303;69181;-87
2023/05/31 05:56:50;;;;;;;9.50;4.60;;;;;;;22.76;40.04;100752.15;105153;1299;68639;-88
2023/05/31 05:59:16;;;;;;;9.90;4.80;;;;;;;22.76;39.90;100753.79;105119;1300;69362;-92
2023/05/31 06:01:59;;;;;;;7.30;4.70;;;;;;;22.77;39.96;100757.54;105073;1299;68147;-88
2023/05/31 06:04:27;;;;;;;8.60;4.50;;;;;;;22.78;39.91;100756.50;105294;1302;68889;-85
2023/05/31 06:07:03;;;;;;;8.80;4.90;;;;;;;22.79;39.82;100757.63;105401;1300;69311;-88
2023/05/31 06:09:35;;;;;;;12.10;4.50;;;;;;;22.81;39.80;100761.27;105732;1301;81907;-88
2023/05/31 06:12:07;;;;;;;9.60;4.40;;;;;;;22.81;39.76;100762.14;105688;1296;68214;-84
2023/05/31 06:14:33;;;;;;;11.70;4.90;;;;;;;22.83;39.64;100761.06;105304;1302;68349;-84
2023/05/31 06:17:01;;;;;;;10.90;4.70;;;;;;;22.85;39.49;100760.54;105284;1302;69166;-86
2023/05/31 06:19:43;;;;;;;12.50;5.20;;;;;;;22.85;39.39;100761.98;105486;1299;67309;-85
2023/05/31 06:22:09;;;;;;;11.70;4.50;;;;;;;22.85;39.28;100763.16;105325;1300;73302;-83
2023/05/31 06:24:36;;;;;;;9.20;4.40;;;;;;;22.86;39.19;100763.98;105151;1299;68784;-85
2023/05/31 06:27:02;;;;;;;10.80;4.60;;;;;;;22.87;39.07;100766.94;105437;1300;67291;-85
2023/05/31 06:29:28;;;;;;;9.00;5.20;;;;;;;22.88;39.04;100769.77;105598;1299;68403;-84
2023/05/31 06:31:56;;;;;;;11.20;4.80;;;;;;;22.89;39.12;100767.15;105456;1300;68434;-85
2023/05/31 06:34:25;;;;;;;9.90;4.70;;;;;;;22.89;39.04;100765.60;105465;1300;75129;-85
2023/05/31 06:36:53;;;;;;;9.90;4.70;;;;;;;22.89;38.98;100767.91;105432;1299;71661;-88
2023/05/31 06:39:53;;;;;;;;;;;;;;;;;;;;;
2023/05/31 06:52:20;;;;;;;10.30;4.50;;;;;;;22.90;38.78;100783.77;85916;1290;66738;31
2023/05/31 06:55:04;;;;;;;11.30;4.70;;;;;;;22.90;38.72;100779.45;105482;1301;67924;-88
2023/05/31 06:57:59;;;;;;;10.50;4.90;;;;;;;22.91;38.55;100786.33;105685;1299;67142;-88
2023/05/31 07:00:39;;;;;;;12.10;5.00;;;;;;;22.91;38.49;100786.79;105705;1299;67302;-89
2023/05/31 07:03:41;;;;;;;17.00;4.30;;;;;;;22.92;38.41;100789.19;105287;1300;73852;-88
2023/05/31 07:06:09;;;;;;;11.40;5.00;;;;;;;22.94;38.22;100788.00;105134;1300;68481;-88
2023/05/31 07:08:40;;;;;;;13.30;4.80;;;;;;;22.95;38.11;100790.72;104786;1299;307900;-88
2023/05/31 07:11:35;;;;;;;11.50;4.50;;;;;;;22.98;37.81;100792.77;105069;1293;67205;31
2023/05/31 07:14:10;;;;;;;11.00;4.60;;;;;;;22.98;37.68;100793.44;105028;1297;68660;-93
2023/05/31 07:16:37;;;;;;;8.40;4.50;;;;;;;23.00;37.44;100794.56;105503;1299;75720;-87
2023/05/31 07:19:03;;;;;;;12.40;4.80;;;;;;;23.01;37.38;100795.58;105517;1298;69264;-89
2023/05/31 07:21:29;;;;;;;11.70;4.10;;;;;;;23.02;37.29;100795.63;105527;1299;69161;-89
2023/05/31 07:23:55;;;;;;;14.00;5.00;;;;;;;23.02;37.04;100797.98;105537;1303;69600;-90
2023/05/31 07:26:43;;;;;;;7.50;4.00;;;;;;;23.04;36.93;100798.19;105582;1290;67882;-89
2023/05/31 07:29:18;;;;;;;10.80;3.90;;;;;;;23.04;36.89;100793.92;105546;1293;75225;31
2023/05/31 07:31:44;;;;;;;10.80;4.30;;;;;;;23.05;36.68;100795.26;104920;1299;68421;-87
2023/05/31 07:34:10;;;;;;;6.20;4.10;;;;;;;23.06;36.66;100793.52;104649;1306;67616;-88
2023/05/31 07:36:36;;;;;;;9.40;4.00;;;;;;;23.07;36.57;100791.36;104922;1299;67363;-87
2023/05/31 07:41:54;;;;;;;8.80;3.60;;;;;;;23.08;36.36;100792.68;105471;1297;73022;-89
2023/05/31 07:44:22;;;;;;;6.50;3.70;;;;;;;23.10;36.24;100789.20;105100;1297;68254;-86
2023/05/31 07:50:19;;;;;;;11.90;4.50;;;;;;;23.12;36.01;100791.84;105451;1299;67774;-93
2023/05/31 07:55:43;;;;;;;11.00;4.60;;;;;;;23.12;35.91;100784.92;105428;1296;72283;-90
2023/05/31 07:58:12;;;;;;;10.80;4.30;;;;;;;23.13;35.77;100785.73;104936;1299;68933;-86
2023/05/31 08:00:38;;;;;;;11.60;4.20;;;;;;;23.14;35.80;100786.14;104995;1304;68007;-90
2023/05/31 08:03:05;;;;;;;15.60;4.10;;;;;;;23.15;35.70;100787.20;105292;1299;68430;-86
2023/05/31 08:05:33;;;;;;;9.30;4.70;;;;;;;23.16;35.76;100786.18;105143;1301;69175;-88
2023/05/31 08:08:00;;;;;;;8.60;4.60;;;;;;;23.18;35.82;100788.38;105099;1299;75319;-87
2023/05/31 08:10:28;;;;;;;10.40;4.10;;;;;;;23.22;35.78;100791.63;104918;1301;68366;-88
2023/05/31 08:12:54;;;;;;;14.10;4.70;;;;;;;23.25;35.92;100791.30;104939;1300;67999;-86
2023/05/31 08:15:28;;;;;;;9.60;4.20;;;;;;;23.28;36.01;100792.48;105288;1299;67813;-86
2023/05/31 08:17:55;;;;;;;16.10;5.20;;;;;;;23.31;36.13;100792.21;105254;1299;68097;-86
2023/05/31 08:20:20;;;;;;;15.30;4.40;;;;;;;23.31;36.14;100794.83;105168;1299;68518;-87
2023/05/31 08:22:50;;;;;;;12.50;5.10;;;;;;;23.32;36.32;100796.06;105749;1299;68607;-89
2023/05/31 08:25:19;;;;;;;15.40;5.70;;;;;;;23.33;36.54;100793.84;105840;1297;67258;-87
2023/05/31 08:27:44;;;;;;;19.30;7.00;;;;;;;23.36;36.69;100793.14;105642;1302;67780;-85
2023/05/31 08:30:10;;;;;;;11.40;5.60;;;;;;;23.37;36.71;100792.08;105303;1303;67871;-86
2023/05/31 08:32:37;;;;;;;12.50;5.70;;;;;;;23.39;36.81;100792.12;105099;1304;68487;-85
2023/05/31 08:35:02;;;;;;;11.80;4.40;;;;;;;23.41;36.96;100792.63;104972;1303;68012;-87
2023/05/31 08:37:28;;;;;;;9.60;4.70;;;;;;;23.42;37.03;100786.96;105151;1300;68646;-86
2023/05/31 08:39:53;;;;;;;13.00;4.80;;;;;;;23.44;36.78;100789.73;105341;1299;67286;-88
2023/05/31 08:42:27;;;;;;;11.40;4.60;;;;;;;23.45;36.78;100790.45;105290;1305;68451;-88
2023/05/31 08:44:53;;;;;;;8.30;4.40;;;;;;;23.47;36.75;100787.66;105256;1299;67856;-90
2023/05/31 08:47:33;;;;;;;15.70;4.30;;;;;;;23.49;36.82;100789.60;105454;1302;67848;-90
2023/05/31 08:49:58;;;;;;;8.80;4.10;;;;;;;23.50;36.93;100781.36;105348;1299;68463;-88
2023/05/31 08:52:24;;;;;;;12.60;4.00;;;;;;;23.51;36.84;100776.02;105028;1300;67936;-87
2023/05/31 08:54:50;;;;;;;8.20;4.20;;;;;;;23.51;36.86;100775.31;104972;1299;67865;-87
2023/05/31 08:57:15;;;;;;;9.70;4.20;;;;;;;23.51;36.91;100777.00;105453;1299;67405;-89
2023/05/31 08:59:42;;;;;;;9.80;4.10;;;;;;;23.50;36.77;100775.52;105379;1299;68042;-88
2023/05/31 09:02:07;;;;;;;14.00;4.40;;;;;;;23.51;36.70;100772.80;105375;1296;67717;-87
2023/05/31 09:07:25;;;;;;;14.30;4.10;;;;;;;23.50;36.55;100770.23;105335;1302;67915;-87
2023/05/31 09:09:51;;;;;;;8.10;4.00;;;;;;;23.50;36.44;100768.39;105191;1304;67449;-89
2023/05/31 09:12:21;;;;;;;10.00;4.00;;;;;;;23.49;36.37;100767.77;104925;1302;67183;-86
2023/05/31 09:14:47;;;;;;;14.10;4.50;;;;;;;23.49;36.57;100760.84;105053;1301;67430;-87
2023/05/31 09:17:13;;;;;;;11.90;4.10;;;;;;;23.49;36.46;100767.35;105244;1301;67689;-88
2023/05/31 09:19:52;;;;;;;21.20;4.30;;;;;;;23.49;36.52;100770.02;105170;1302;68037;-91
2023/05/31 09:22:18;;;;;;;15.50;4.70;;;;;;;23.50;36.46;100768.54;105062;1303;67510;-86
2023/05/31 09:24:57;;;;;;;13.40;4.10;;;;;;;23.50;36.67;100770.95;104927;1303;67949;-88
2023/05/31 09:27:26;;;;;;;15.40;4.60;;;;;;;23.50;36.67;100772.64;105124;1301;68011;-87
2023/05/31 09:29:56;;;;;;;14.20;4.50;;;;;;;23.50;36.63;100770.44;105167;1302;73795;-90
2023/05/31 09:32:26;;;;;;;9.70;4.20;;;;;;;23.50;36.60;100769.40;105001;1301;68162;-88
2023/05/31 09:34:52;;;;;;;12.80;4.20;;;;;;;23.50;36.76;100770.02;105170;1301;68205;-90
2023/05/31 09:43:04;;;;;;;6.40;3.80;;;;;;;23.51;36.72;100769.00;105620;1297;74578;-88
2023/05/31 09:45:33;;;;;;;7.90;4.40;;;;;;;23.51;36.69;100768.58;105375;1297;68682;-87
2023/05/31 09:47:59;;;;;;;9.50;4.80;;;;;;;23.51;36.84;100765.80;105519;1297;67307;-88
2023/05/31 09:50:25;;;;;;;12.30;4.50;;;;;;;23.52;36.70;100765.85;105435;1299;68015;-89
2023/05/31 09:52:56;;;;;;;7.80;3.90;;;;;;;23.52;36.77;100759.53;105416;1297;68397;-89
2023/05/31 09:57:57;;;;;;;12.00;4.70;;;;;;;23.53;36.63;100756.96;105358;1299;68083;-89
2023/05/31 10:00:24;;;;;;;9.00;3.80;;;;;;;23.55;36.55;100758.59;105375;1299;68544;-88
2023/05/31 10:02:51;;;;;;;14.10;4.60;;;;;;;23.57;36.60;100757.20;105316;1299;69686;-89
2023/05/31 10:05:17;;;;;;;16.60;4.40;;;;;;;23.58;36.74;100752.77;105310;1299;68333;-87
2023/05/31 10:07:46;;;;;;;11.60;4.80;;;;;;;23.59;36.60;100752.10;105187;1300;67841;-87
2023/05/31 10:10:12;;;;;;;7.70;4.50;;;;;;;23.60;36.50;100748.34;105219;1300;68483;-88
2023/05/31 10:12:53;;;;;;;13.40;4.60;;;;;;;23.60;36.65;100744.02;105072;1300;68059;-87
2023/05/31 10:15:21;;;;;;;10.60;4.80;;;;;;;23.62;36.57;100744.48;105384;1299;67897;-86
2023/05/31 10:18:03;;;;;;;16.60;5.00;;;;;;;23.63;36.84;100751.75;105342;1299;67682;-88
2023/05/31 10:20:36;;;;;;;14.00;5.10;;;;;;;23.65;36.90;100750.72;105208;1299;75612;-86
2023/05/31 10:23:02;;;;;;;15.50;4.80;;;;;;;23.67;36.61;100750.52;105178;1300;68632;-87
2023/05/31 10:25:37;;;;;;;13.70;4.60;;;;;;;23.68;36.72;100747.67;105177;1300;68648;-87
2023/05/31 10:28:07;;;;;;;9.30;4.80;;;;;;;23.68;36.74;100746.70;105069;1299;68266;-86
2023/05/31 10:30:34;;;;;;;11.20;4.90;;;;;;;23.68;36.67;100743.61;105342;1301;67878;-86
2023/05/31 10:33:03;;;;;;;8.30;4.30;;;;;;;23.68;36.66;100741.20;105615;1299;74185;-87
2023/05/31 10:35:35;;;;;;;9.50;4.60;;;;;;;23.68;36.53;100736.69;105310;1299;67783;-87
2023/05/31 10:38:01;;;;;;;10.30;4.30;;;;;;;23.68;36.21;100735.10;105325;1302;67930;-87
2023/05/31 10:40:37;;;;;;;9.90;4.60;;;;;;;23.70;36.08;100731.32;105325;1301;67846;-86
2023/05/31 10:43:33;;;;;;;9.50;4.80;;;;;;;23.72;36.08;100729.05;105280;1301;75135;-87
2023/05/31 10:46:01;;;;;;;6.00;4.30;;;;;;;23.73;35.91;100728.73;105225;1302;74351;-87
2023/05/31 10:48:52;;;;;;;9.90;4.50;;;;;;;23.75;35.85;100725.94;105148;1300;67992;-86
2023/05/31 10:51:18;;;;;;;8.30;4.70;;;;;;;23.74;35.71;100722.96;105228;1302;67925;-87
2023/05/31 10:53:45;;;;;;;7.60;4.20;;;;;;;23.75;35.75;100718.95;105170;1301;67890;-86
2023/05/31 10:56:13;;;;;;;7.70;4.60;;;;;;;23.76;35.77;100719.81;105347;1300;68106;-86
2023/05/31 10:58:39;;;;;;;10.00;5.30;;;;;;;23.76;35.58;100711.49;105283;1300;75192;-86
2023/05/31 11:01:09;;;;;;;11.10;5.00;;;;;;;23.75;35.59;100708.52;105458;1299;67676;-87
2023/05/31 11:03:36;;;;;;;9.80;5.10;;;;;;;23.75;35.47;100706.31;105406;1302;67754;-86
2023/05/31 11:06:03;;;;;;;9.20;4.80;;;;;;;23.74;35.36;100702.30;105552;1300;67209;-87
2023/05/31 11:08:32;;;;;;;8.00;4.90;;;;;;;23.74;35.23;100695.74;105550;1299;67006;-87
2023/05/31 11:11:44;;;;;;;9.00;4.80;;;;;;;23.73;35.21;100701.75;105466;1299;74253;-86
2023/05/31 11:14:16;;;;;;;9.40;5.10;;;;;;;23.71;35.24;100702.59;105531;1299;67344;-87
2023/05/31 11:16:48;;;;;;;6.50;4.30;;;;;;;23.72;35.34;100701.61;105582;1299;67931;-86
2023/05/31 11:19:15;;;;;;;8.00;4.60;;;;;;;23.72;34.99;100702.07;105543;1299;67794;-86
2023/05/31 11:21:49;;;;;;;9.70;4.30;;;;;;;23.72;35.00;100699.82;105480;1300;67768;-84
2023/05/31 11:24:27;;;;;;;9.00;3.80;;;;;;;23.72;34.90;100695.40;105494;1299;74114;-86
2023/05/31 11:26:53;;;;;;;9.70;4.30;;;;;;;23.71;34.64;100693.20;105551;1299;67757;-87
2023/05/31 11:29:19;;;;;;;6.00;3.80;;;;;;;23.71;34.50;100691.08;105556;1299;67748;-87
2023/05/31 11:31:51;;;;;;;8.30;4.00;;;;;;;23.71;34.31;100684.05;105499;1300;67129;-87
2023/05/31 11:34:18;;;;;;;10.70;3.80;;;;;;;23.71;34.19;100683.54;105603;1299;68059;-88
2023/05/31 11:36:47;;;;;;;9.40;3.80;;;;;;;23.71;34.18;100681.64;105671;1300;75103;-86
2023/05/31 11:39:13;;;;;;;10.70;4.00;;;;;;;23.70;34.12;100681.20;105780;1300;67835;-87
2023/05/31 11:41:39;;;;;;;9.30;4.00;;;;;;;23.69;33.80;100682.98;105654;1300;67474;-87
2023/05/31 11:44:05;;;;;;;8.50;4.30;;;;;;;23.69;33.79;100682.02;105670;1299;67831;-87
2023/05/31 11:46:30;;;;;;;10.30;4.10;;;;;;;23.70;33.81;100677.99;105762;1300;67140;-86
2023/05/31 11:51:30;;;;;;;9.30;4.30;;;;;;;23.70;33.61;100674.91;105470;1299;68249;-87
2023/05/31 11:53:56;;;;;;;8.90;4.30;;;;;;;23.70;33.61;100672.30;105487;1299;69164;-87
2023/05/31 11:56:36;;;;;;;5.80;3.90;;;;;;;23.70;33.56;100670.76;105399;1300;67791;-87
2023/05/31 11:59:02;;;;;;;10.40;4.10;;;;;;;23.71;33.45;100671.67;105479;1300;67148;-87
2023/05/31 12:01:30;;;;;;;7.70;4.50;;;;;;;23.70;33.47;100668.34;105399;1299;75283;-87
2023/05/31 12:04:05;;;;;;;9.10;4.30;;;;;;;23.69;33.58;100665.31;105436;1299;68031;-91